sensor_id;sensor_type;location;lat;lon;timestamp;pressure;altitude;pressure_sealevel;temperature;humidity
33280;BME280;20403;43.114;12.434;2023-07-13T00:02:00;99055.75;;;22.07;100.00
33280;BME280;20403;43.114;12.434;2023-07-13T00:04:26;99054.41;;;21.95;100.00
33280;BME280;20403;43.114;12.434;2023-07-13T00:06:52;99054.31;;;21.87;100.00
33280;BME280;20403;43.114;12.434;2023-07-13T00:09:18;99055.63;;;21.75;100.00
33280;BME280;20403;43.114;12.434;2023-07-13T00:11:45;99055.63;;;21.75;100.00
33280;BME280;20403;43.114;12.434;2023-07-13T00:14:13;99060.25;;;21.70;100.00
33280;BME280;20403;43.114;12.434;2023-07-13T00:16:40;99063.47;;;21.67;100.00
33280;BME280;20403;43.114;12.434;2023-07-13T00:19:09;99067.91;;;21.71;100.00
33280;BME280;20403;43.114;12.434;2023-07-13T00:21:35;99064.19;;;21.72;100.00
33280;BME280;20403;43.114;12.434;2023-07-13T00:24:01;99061.81;;;21.85;100.00
33280;BME280;20403;43.114;12.434;2023-07-13T00:26:27;99066.91;;;21.81;100.00
33280;BME280;20403;43.114;12.434;2023-07-13T00:28:52;99062.09;;;21.83;100.00
33280;BME280;20403;43.114;12.434;2023-07-13T00:31:18;99067.00;;;21.90;100.00
33280;BME280;20403;43.114;12.434;2023-07-13T00:33:44;99083.41;;;21.92;100.00
33280;BME280;20403;43.114;12.434;2023-07-13T00:36:10;99091.59;;;21.81;100.00
33280;BME280;20403;43.114;12.434;2023-07-13T00:38:36;99084.31;;;21.87;100.00
33280;BME280;20403;43.114;12.434;2023-07-13T00:41:02;99089.63;;;21.87;100.00
33280;BME280;20403;43.114;12.434;2023-07-13T00:43:29;99088.94;;;21.95;100.00
33280;BME280;20403;43.114;12.434;2023-07-13T00:48:26;99094.53;;;21.94;100.00
33280;BME280;20403;43.114;12.434;2023-07-13T00:50:56;99083.63;;;21.95;100.00
33280;BME280;20403;43.114;12.434;2023-07-13T00:53:22;99081.25;;;22.08;100.00
33280;BME280;20403;43.114;12.434;2023-07-13T00:55:50;99085.66;;;22.12;100.00
33280;BME280;20403;43.114;12.434;2023-07-13T00:58:16;99084.28;;;22.15;100.00
33280;BME280;20403;43.114;12.434;2023-07-13T01:00:42;99084.69;;;22.22;100.00
33280;BME280;20403;43.114;12.434;2023-07-13T01:03:08;99069.09;;;22.29;100.00
33280;BME280;20403;43.114;12.434;2023-07-13T01:05:34;99073.84;;;22.32;100.00
33280;BME280;20403;43.114;12.434;2023-07-13T01:08:01;99065.44;;;22.39;100.00
33280;BME280;20403;43.114;12.434;2023-07-13T01:10:27;99052.75;;;22.36;100.00
33280;BME280;20403;43.114;12.434;2023-07-13T01:12:53;99054.94;;;22.34;100.00
33280;BME280;20403;43.114;12.434;2023-07-13T01:15:44;99045.06;;;22.34;100.00
33280;BME280;20403;43.114;12.434;2023-07-13T01:18:11;99062.13;;;22.33;100.00
33280;BME280;20403;43.114;12.434;2023-07-13T01:20:39;99054.34;;;22.37;100.00
33280;BME280;20403;43.114;12.434;2023-07-13T01:23:07;99048.47;;;22.26;100.00
33280;BME280;20403;43.114;12.434;2023-07-13T01:25:34;99054.94;;;22.34;100.00
33280;BME280;20403;43.114;12.434;2023-07-13T01:28:02;99048.84;;;22.33;100.00
33280;BME280;20403;43.114;12.434;2023-07-13T01:30:28;99059.59;;;22.28;100.00
33280;BME280;20403;43.114;12.434;2023-07-13T01:32:54;99041.56;;;22.25;100.00
33280;BME280;20403;43.114;12.434;2023-07-13T01:35:19;99048.25;;;22.22;100.00
33280;BME280;20403;43.114;12.434;2023-07-13T01:37:45;99047.97;;;22.10;100.00
33280;BME280;20403;43.114;12.434;2023-07-13T01:40:11;99047.78;;;22.07;100.00
33280;BME280;20403;43.114;12.434;2023-07-13T01:42:37;99042.00;;;22.05;100.00
33280;BME280;20403;43.114;12.434;2023-07-13T01:45:03;99040.22;;;22.14;100.00
33280;BME280;20403;43.114;12.434;2023-07-13T01:47:29;99038.22;;;22.19;100.00
33280;BME280;20403;43.114;12.434;2023-07-13T01:49:56;99051.31;;;22.16;100.00
33280;BME280;20403;43.114;12.434;2023-07-13T01:52:22;99050.72;;;22.19;100.00
33280;BME280;20403;43.114;12.434;2023-07-13T01:54:47;99038.50;;;22.18;100.00
33280;BME280;20403;43.114;12.434;2023-07-13T01:57:13;99055.75;;;22.07;100.00
33280;BME280;20403;43.114;12.434;2023-07-13T01:59:38;99058.41;;;22.07;100.00
33280;BME280;20403;43.114;12.434;2023-07-13T02:02:04;99072.19;;;22.09;100.00
33280;BME280;20403;43.114;12.434;2023-07-13T02:04:29;99077.50;;;22.09;100.00
33280;BME280;20403;43.114;12.434;2023-07-13T02:06:54;99078.97;;;22.15;100.00
33280;BME280;20403;43.114;12.434;2023-07-13T02:09:20;99077.59;;;22.03;100.00
33280;BME280;20403;43.114;12.434;2023-07-13T02:11:46;99067.09;;;21.98;100.00
33280;BME280;20403;43.114;12.434;2023-07-13T02:14:11;99064.22;;;21.95;100.00
33280;BME280;20403;43.114;12.434;2023-07-13T02:16:37;99065.06;;;21.81;100.00
33280;BME280;20403;43.114;12.434;2023-07-13T02:19:02;99068.88;;;21.75;100.00
33280;BME280;20403;43.114;12.434;2023-07-13T02:21:28;99066.63;;;21.69;100.00
33280;BME280;20403;43.114;12.434;2023-07-13T02:23:54;99059.81;;;21.76;100.00
33280;BME280;20403;43.114;12.434;2023-07-13T02:26:20;99041.75;;;21.65;100.00
33280;BME280;20403;43.114;12.434;2023-07-13T02:28:45;99039.31;;;21.68;100.00
33280;BME280;20403;43.114;12.434;2023-07-13T02:31:13;99040.31;;;21.58;100.00
33280;BME280;20403;43.114;12.434;2023-07-13T02:33:38;99050.81;;;21.50;100.00
33280;BME280;20403;43.114;12.434;2023-07-13T02:36:04;99055.72;;;21.56;100.00
33280;BME280;20403;43.114;12.434;2023-07-13T02:38:31;99050.91;;;21.45;100.00
33280;BME280;20403;43.114;12.434;2023-07-13T02:40:59;99062.09;;;21.55;100.00
33280;BME280;20403;43.114;12.434;2023-07-13T02:43:25;99048.94;;;21.50;100.00
33280;BME280;20403;43.114;12.434;2023-07-13T02:45:50;99047.16;;;21.46;100.00
33280;BME280;20403;43.114;12.434;2023-07-13T02:48:16;99050.50;;;21.37;100.00
33280;BME280;20403;43.114;12.434;2023-07-13T02:50:42;99047.53;;;21.39;100.00
33280;BME280;20403;43.114;12.434;2023-07-13T02:53:09;99043.53;;;21.42;100.00
33280;BME280;20403;43.114;12.434;2023-07-13T02:55:34;99044.38;;;21.37;100.00
33280;BME280;20403;43.114;12.434;2023-07-13T02:58:00;99040.53;;;21.15;100.00
33280;BME280;20403;43.114;12.434;2023-07-13T03:00:26;99041.91;;;21.13;100.00
33280;BME280;20403;43.114;12.434;2023-07-13T03:02:51;99043.97;;;21.16;100.00
33280;BME280;20403;43.114;12.434;2023-07-13T03:05:18;99043.78;;;21.12;100.00
33280;BME280;20403;43.114;12.434;2023-07-13T03:07:43;99042.09;;;21.16;100.00
33280;BME280;20403;43.114;12.434;2023-07-13T03:10:09;99046.44;;;21.12;100.00
33280;BME280;20403;43.114;12.434;2023-07-13T03:12:35;99051.25;;;21.10;100.00
33280;BME280;20403;43.114;12.434;2023-07-13T03:15:00;99060.25;;;21.09;100.00
33280;BME280;20403;43.114;12.434;2023-07-13T03:17:25;99054.66;;;21.11;100.00
33280;BME280;20403;43.114;12.434;2023-07-13T03:19:51;99053.28;;;21.13;100.00
33280;BME280;20403;43.114;12.434;2023-07-13T03:22:18;99054.47;;;21.21;100.00
33280;BME280;20403;43.114;12.434;2023-07-13T03:24:44;99063.91;;;21.27;100.00
33280;BME280;20403;43.114;12.434;2023-07-13T03:27:10;99065.09;;;21.35;100.00
33280;BME280;20403;43.114;12.434;2023-07-13T03:29:35;99057.94;;;21.22;100.00
33280;BME280;20403;43.114;12.434;2023-07-13T03:32:01;99056.94;;;21.17;100.00
33280;BME280;20403;43.114;12.434;2023-07-13T03:34:26;99053.78;;;21.15;100.00
33280;BME280;20403;43.114;12.434;2023-07-13T03:36:54;99046.84;;;21.19;100.00
33280;BME280;20403;43.114;12.434;2023-07-13T03:39:20;99039.16;;;21.18;100.00
33280;BME280;20403;43.114;12.434;2023-07-13T03:41:45;99047.22;;;21.13;100.00
33280;BME280;20403;43.114;12.434;2023-07-13T03:44:11;99052.41;;;21.04;100.00
33280;BME280;20403;43.114;12.434;2023-07-13T03:46:37;99051.53;;;21.09;100.00
33280;BME280;20403;43.114;12.434;2023-07-13T03:49:04;99059.09;;;21.15;100.00
33280;BME280;20403;43.114;12.434;2023-07-13T03:51:30;99050.84;;;21.17;100.00
33280;BME280;20403;43.114;12.434;2023-07-13T03:53:56;99044.47;;;21.18;100.00
33280;BME280;20403;43.114;12.434;2023-07-13T03:56:21;99047.91;;;21.18;100.00
33280;BME280;20403;43.114;12.434;2023-07-13T03:58:48;99043.59;;;21.23;100.00
33280;BME280;20403;43.114;12.434;2023-07-13T04:01:15;99049.88;;;21.27;100.00
33280;BME280;20403;43.114;12.434;2023-07-13T04:03:41;99053.78;;;21.15;100.00
33280;BME280;20403;43.114;12.434;2023-07-13T04:06:14;99058.13;;;21.25;100.00
33280;BME280;20403;43.114;12.434;2023-07-13T04:08:41;99060.78;;;21.25;100.00
33280;BME280;20403;43.114;12.434;2023-07-13T04:11:07;99064.81;;;21.23;100.00
33280;BME280;20403;43.114;12.434;2023-07-13T04:13:32;99072.16;;;21.26;100.00
33280;BME280;20403;43.114;12.434;2023-07-13T04:15:58;99075.81;;;21.30;100.00
33280;BME280;20403;43.114;12.434;2023-07-13T04:18:23;99071.38;;;21.25;100.00
33280;BME280;20403;43.114;12.434;2023-07-13T04:20:49;99064.53;;;21.38;100.00
33280;BME280;20403;43.114;12.434;2023-07-13T04:23:16;99061.31;;;21.41;100.00
33280;BME280;20403;43.114;12.434;2023-07-13T04:25:45;99066.03;;;21.44;100.00
33280;BME280;20403;43.114;12.434;2023-07-13T04:28:11;99066.84;;;21.45;100.00
33280;BME280;20403;43.114;12.434;2023-07-13T04:30:37;99062.03;;;21.47;100.00
33280;BME280;20403;43.114;12.434;2023-07-13T04:33:02;99064.25;;;21.53;100.00
33280;BME280;20403;43.114;12.434;2023-07-13T04:35:28;99062.91;;;21.42;100.00
33280;BME280;20403;43.114;12.434;2023-07-13T04:37:53;99067.78;;;21.49;100.00
33280;BME280;20403;43.114;12.434;2023-07-13T04:40:19;99073.50;;;21.42;100.00
33280;BME280;20403;43.114;12.434;2023-07-13T04:42:46;99074.78;;;21.45;100.00
33280;BME280;20403;43.114;12.434;2023-07-13T04:45:13;99074.28;;;21.43;100.00
33280;BME280;20403;43.114;12.434;2023-07-13T04:47:39;99081.88;;;21.49;100.00
33280;BME280;20403;43.114;12.434;2023-07-13T04:50:06;99080.66;;;21.55;100.00
33280;BME280;20403;43.114;12.434;2023-07-13T04:52:32;99077.06;;;21.65;100.00
33280;BME280;20403;43.114;12.434;2023-07-13T04:54:58;99070.16;;;21.78;100.00
33280;BME280;20403;43.114;12.434;2023-07-13T04:57:24;99069.38;;;21.91;100.00
33280;BME280;20403;43.114;12.434;2023-07-13T04:59:50;99072.78;;;22.06;100.00
33280;BME280;20403;43.114;12.434;2023-07-13T05:02:15;99074.06;;;22.22;100.00
33280;BME280;20403;43.114;12.434;2023-07-13T05:04:41;99070.28;;;22.37;100.00
33280;BME280;20403;43.114;12.434;2023-07-13T05:07:07;99071.19;;;22.55;100.00
33280;BME280;20403;43.114;12.434;2023-07-13T05:09:32;99077.53;;;22.68;100.00
33280;BME280;20403;43.114;12.434;2023-07-13T05:11:58;99072.28;;;22.76;100.00
33280;BME280;20403;43.114;12.434;2023-07-13T05:14:23;99072.22;;;22.90;100.00
33280;BME280;20403;43.114;12.434;2023-07-13T05:16:48;99068.25;;;23.01;100.00
33280;BME280;20403;43.114;12.434;2023-07-13T05:19:14;99074.28;;;23.16;100.00
33280;BME280;20403;43.114;12.434;2023-07-13T05:21:39;99078.69;;;23.20;100.00
33280;BME280;20403;43.114;12.434;2023-07-13T05:24:06;99079.66;;;23.33;100.00
33280;BME280;20403;43.114;12.434;2023-07-13T05:26:31;99083.16;;;23.42;100.00
33280;BME280;20403;43.114;12.434;2023-07-13T05:28:57;99078.03;;;23.55;100.00
33280;BME280;20403;43.114;12.434;2023-07-13T05:31:22;99071.03;;;23.67;100.00
33280;BME280;20403;43.114;12.434;2023-07-13T05:33:47;99062.94;;;23.81;100.00
33280;BME280;20403;43.114;12.434;2023-07-13T05:36:13;99064.84;;;23.89;100.00
33280;BME280;20403;43.114;12.434;2023-07-13T05:38:38;99062.81;;;23.95;100.00
33280;BME280;20403;43.114;12.434;2023-07-13T05:41:05;99053.75;;;23.96;100.00
33280;BME280;20403;43.114;12.434;2023-07-13T05:43:30;99063.31;;;24.06;100.00
33280;BME280;20403;43.114;12.434;2023-07-13T05:45:56;99068.50;;;24.20;100.00
33280;BME280;20403;43.114;12.434;2023-07-13T05:48:22;99055.97;;;24.29;100.00
33280;BME280;20403;43.114;12.434;2023-07-13T05:50:48;99059.88;;;24.40;100.00
33280;BME280;20403;43.114;12.434;2023-07-13T05:53:13;99065.22;;;24.49;100.00
33280;BME280;20403;43.114;12.434;2023-07-13T05:55:46;99065.22;;;24.66;100.00
33280;BME280;20403;43.114;12.434;2023-07-13T05:58:18;99057.69;;;24.77;100.00
33280;BME280;20403;43.114;12.434;2023-07-13T06:00:44;99064.38;;;24.83;100.00
33280;BME280;20403;43.114;12.434;2023-07-13T06:03:10;99057.94;;;24.93;100.00
33280;BME280;20403;43.114;12.434;2023-07-13T06:05:36;99045.19;;;25.07;100.00
33280;BME280;20403;43.114;12.434;2023-07-13T06:08:03;99051.09;;;25.30;100.00
33280;BME280;20403;43.114;12.434;2023-07-13T06:10:28;99042.34;;;25.51;100.00
33280;BME280;20403;43.114;12.434;2023-07-13T06:12:53;99039.91;;;25.67;100.00
33280;BME280;20403;43.114;12.434;2023-07-13T06:15:19;99046.13;;;25.79;100.00
33280;BME280;20403;43.114;12.434;2023-07-13T06:17:44;99043.75;;;25.87;100.00
33280;BME280;20403;43.114;12.434;2023-07-13T06:20:10;99043.03;;;25.98;100.00
33280;BME280;20403;43.114;12.434;2023-07-13T06:22:35;99040.97;;;26.04;100.00
33280;BME280;20403;43.114;12.434;2023-07-13T06:25:01;99050.16;;;26.15;100.00
33280;BME280;20403;43.114;12.434;2023-07-13T06:27:26;99042.97;;;26.28;100.00
33280;BME280;20403;43.114;12.434;2023-07-13T06:29:52;99045.50;;;26.46;100.00
33280;BME280;20403;43.114;12.434;2023-07-13T06:32:17;99032.97;;;26.58;100.00
33280;BME280;20403;43.114;12.434;2023-07-13T06:34:42;99039.72;;;26.77;100.00
33280;BME280;20403;43.114;12.434;2023-07-13T06:37:09;99038.66;;;26.90;89.13
33280;BME280;20403;43.114;12.434;2023-07-13T06:39:34;99030.16;;;27.00;81.42
33280;BME280;20403;43.114;12.434;2023-07-13T06:42:00;99019.16;;;27.14;75.56
33280;BME280;20403;43.114;12.434;2023-07-13T06:44:25;99021.53;;;27.28;71.33
33280;BME280;20403;43.114;12.434;2023-07-13T06:46:50;99032.13;;;27.37;73.83
33280;BME280;20403;43.114;12.434;2023-07-13T06:49:16;99026.31;;;27.47;73.16
33280;BME280;20403;43.114;12.434;2023-07-13T06:51:41;99034.81;;;27.61;73.80
33280;BME280;20403;43.114;12.434;2023-07-13T06:54:07;99032.78;;;27.71;70.41
33280;BME280;20403;43.114;12.434;2023-07-13T06:56:32;99033.56;;;27.83;71.00
33280;BME280;20403;43.114;12.434;2023-07-13T06:58:57;99037.22;;;27.91;67.85
33280;BME280;20403;43.114;12.434;2023-07-13T07:01:23;99036.19;;;28.08;69.82
33280;BME280;20403;43.114;12.434;2023-07-13T07:03:48;99036.84;;;28.05;67.45
33280;BME280;20403;43.114;12.434;2023-07-13T07:06:17;99033.31;;;28.01;62.83
33280;BME280;20403;43.114;12.434;2023-07-13T07:08:43;99039.75;;;28.12;66.07
33280;BME280;20403;43.114;12.434;2023-07-13T07:11:16;99029.88;;;28.28;63.22
33280;BME280;20403;43.114;12.434;2023-07-13T07:13:42;99022.19;;;28.43;64.29
33280;BME280;20403;43.114;12.434;2023-07-13T07:16:07;99023.22;;;28.66;65.35
33280;BME280;20403;43.114;12.434;2023-07-13T07:18:34;99027.03;;;28.65;61.83
33280;BME280;20403;43.114;12.434;2023-07-13T07:21:00;99019.34;;;28.80;60.87
33280;BME280;20403;43.114;12.434;2023-07-13T07:23:25;99029.28;;;28.95;60.54
33280;BME280;20403;43.114;12.434;2023-07-13T07:25:50;99024.78;;;28.99;61.39
33280;BME280;20403;43.114;12.434;2023-07-13T07:28:17;99035.69;;;29.06;59.19
33280;BME280;20403;43.114;12.434;2023-07-13T07:30:46;99038.09;;;29.08;60.54
33280;BME280;20403;43.114;12.434;2023-07-13T07:33:11;99038.84;;;29.08;61.78
33280;BME280;20403;43.114;12.434;2023-07-13T07:35:37;99046.25;;;29.11;60.10
33280;BME280;20403;43.114;12.434;2023-07-13T07:38:02;99046.56;;;29.10;61.18
33280;BME280;20403;43.114;12.434;2023-07-13T07:40:28;99047.09;;;29.16;61.33
33280;BME280;20403;43.114;12.434;2023-07-13T07:42:53;99049.88;;;29.19;62.73
33280;BME280;20403;43.114;12.434;2023-07-13T07:45:19;99050.03;;;29.26;64.09
33280;BME280;20403;43.114;12.434;2023-07-13T07:47:45;99047.84;;;29.32;59.47
33280;BME280;20403;43.114;12.434;2023-07-13T07:50:10;99042.06;;;29.30;56.32
33280;BME280;20403;43.114;12.434;2023-07-13T07:52:36;99033.97;;;29.46;59.89
33280;BME280;20403;43.114;12.434;2023-07-13T07:55:01;99037.34;;;29.43;55.51
33280;BME280;20403;43.114;12.434;2023-07-13T07:57:27;99048.44;;;29.41;56.11
33280;BME280;20403;43.114;12.434;2023-07-13T07:59:52;99050.88;;;29.46;58.82
33280;BME280;20403;43.114;12.434;2023-07-13T08:02:18;99054.97;;;29.40;55.48
33280;BME280;20403;43.114;12.434;2023-07-13T08:04:43;99053.03;;;29.41;53.37
33280;BME280;20403;43.114;12.434;2023-07-13T08:07:09;99052.09;;;29.49;55.33
33280;BME280;20403;43.114;12.434;2023-07-13T08:09:34;99055.78;;;29.76;55.10
33280;BME280;20403;43.114;12.434;2023-07-13T08:11:59;99017.50;;;29.83;51.47
33280;BME280;20403;43.114;12.434;2023-07-13T08:14:25;99024.94;;;29.70;50.52
33280;BME280;20403;43.114;12.434;2023-07-13T08:16:50;99054.94;;;29.72;51.44
33280;BME280;20403;43.114;12.434;2023-07-13T08:19:16;99060.53;;;29.83;50.94
33280;BME280;20403;43.114;12.434;2023-07-13T08:21:41;99042.69;;;29.74;49.89
33280;BME280;20403;43.114;12.434;2023-07-13T08:24:08;99045.13;;;29.64;50.18
33280;BME280;20403;43.114;12.434;2023-07-13T08:26:34;99072.72;;;29.45;50.92
33280;BME280;20403;43.114;12.434;2023-07-13T08:28:59;99079.28;;;29.63;49.58
33280;BME280;20403;43.114;12.434;2023-07-13T08:31:25;99101.09;;;29.93;54.83
33280;BME280;20403;43.114;12.434;2023-07-13T08:33:50;99072.91;;;29.87;49.67
33280;BME280;20403;43.114;12.434;2023-07-13T08:36:15;99079.72;;;29.81;51.59
33280;BME280;20403;43.114;12.434;2023-07-13T08:38:41;99077.72;;;29.62;49.38
33280;BME280;20403;43.114;12.434;2023-07-13T08:41:15;99102.50;;;29.87;48.80
33280;BME280;20403;43.114;12.434;2023-07-13T08:43:42;99110.63;;;30.07;48.87
33280;BME280;20403;43.114;12.434;2023-07-13T08:46:30;99092.94;;;29.90;52.28
33280;BME280;20403;43.114;12.434;2023-07-13T08:49:03;99094.81;;;29.70;50.25
33280;BME280;20403;43.114;12.434;2023-07-13T08:53:59;99090.16;;;29.51;49.47
33280;BME280;20403;43.114;12.434;2023-07-13T08:56:28;99070.22;;;29.36;50.10
33280;BME280;20403;43.114;12.434;2023-07-13T08:59:00;99035.66;;;29.35;51.89
33280;BME280;20403;43.114;12.434;2023-07-13T09:06:49;98944.34;;;29.03;54.98
33280;BME280;20403;43.114;12.434;2023-07-13T09:14:49;98973.94;;;28.90;58.26
33280;BME280;20403;43.114;12.434;2023-07-13T09:17:23;99042.03;;;28.98;58.98
33280;BME280;20403;43.114;12.434;2023-07-13T09:20:02;99044.03;;;29.01;67.61
33280;BME280;20403;43.114;12.434;2023-07-13T09:22:32;99065.06;;;28.99;64.03
33280;BME280;20403;43.114;12.434;2023-07-13T09:25:06;99037.00;;;28.97;62.09
33280;BME280;20403;43.114;12.434;2023-07-13T09:27:40;99010.09;;;28.93;62.38
33280;BME280;20403;43.114;12.434;2023-07-13T09:32:39;99046.56;;;29.26;69.13
33280;BME280;20403;43.114;12.434;2023-07-13T09:35:12;99063.34;;;29.39;81.38
33280;BME280;20403;43.114;12.434;2023-07-13T09:37:43;99054.78;;;29.33;68.98
33280;BME280;20403;43.114;12.434;2023-07-13T09:40:21;99050.03;;;29.26;85.27
33280;BME280;20403;43.114;12.434;2023-07-13T09:42:52;99012.59;;;29.33;91.07
33280;BME280;20403;43.114;12.434;2023-07-13T09:45:30;99025.06;;;29.42;77.05
33280;BME280;20403;43.114;12.434;2023-07-13T09:48:25;99050.44;;;29.44;76.87
33280;BME280;20403;43.114;12.434;2023-07-13T09:51:07;99050.44;;;29.44;73.66
33280;BME280;20403;43.114;12.434;2023-07-13T09:53:36;99051.28;;;29.48;74.33
33280;BME280;20403;43.114;12.434;2023-07-13T09:56:01;99044.03;;;29.49;85.46
33280;BME280;20403;43.114;12.434;2023-07-13T09:58:30;99030.06;;;29.43;95.59
33280;BME280;20403;43.114;12.434;2023-07-13T10:01:02;99006.44;;;29.33;100.00
33280;BME280;20403;43.114;12.434;2023-07-13T10:03:33;99012.34;;;29.23;82.60
33280;BME280;20403;43.114;12.434;2023-07-13T10:08:37;99049.44;;;29.17;100.00
33280;BME280;20403;43.114;12.434;2023-07-13T10:11:10;99057.88;;;29.03;100.00
33280;BME280;20403;43.114;12.434;2023-07-13T10:13:40;99069.06;;;29.05;100.00
33280;BME280;20403;43.114;12.434;2023-07-13T10:16:08;99058.31;;;29.05;100.00
33280;BME280;20403;43.114;12.434;2023-07-13T10:18:39;99063.13;;;29.12;100.00
33280;BME280;20403;43.114;12.434;2023-07-13T10:24:22;99080.78;;;29.13;100.00
33280;BME280;20403;43.114;12.434;2023-07-13T10:26:53;99093.00;;;29.10;100.00
33280;BME280;20403;43.114;12.434;2023-07-13T10:29:22;99096.25;;;29.04;100.00
33280;BME280;20403;43.114;12.434;2023-07-13T10:31:49;99113.41;;;28.99;100.00
33280;BME280;20403;43.114;12.434;2023-07-13T10:34:15;99131.56;;;28.90;100.00
33280;BME280;20403;43.114;12.434;2023-07-13T10:36:47;99117.28;;;28.58;100.00
33280;BME280;20403;43.114;12.434;2023-07-13T10:39:23;99096.84;;;28.41;100.00
33280;BME280;20403;43.114;12.434;2023-07-13T10:42:01;99064.09;;;28.19;100.00
33280;BME280;20403;43.114;12.434;2023-07-13T10:44:30;99095.72;;;28.01;100.00
33280;BME280;20403;43.114;12.434;2023-07-13T10:46:59;99129.56;;;27.57;100.00
33280;BME280;20403;43.114;12.434;2023-07-13T10:49:28;99137.56;;;27.32;100.00
33280;BME280;20403;43.114;12.434;2023-07-13T10:51:53;99123.22;;;27.16;100.00
33280;BME280;20403;43.114;12.434;2023-07-13T10:54:37;99071.00;;;26.97;100.00
33280;BME280;20403;43.114;12.434;2023-07-13T10:57:16;98998.28;;;26.95;100.00
33280;BME280;20403;43.114;12.434;2023-07-13T10:59:45;99011.00;;;26.98;100.00
33280;BME280;20403;43.114;12.434;2023-07-13T11:02:23;99046.69;;;27.15;100.00
33280;BME280;20403;43.114;12.434;2023-07-13T11:04:53;99073.34;;;26.99;100.00
33280;BME280;20403;43.114;12.434;2023-07-13T11:07:25;99083.09;;;26.82;100.00
33280;BME280;20403;43.114;12.434;2023-07-13T11:10:04;99101.03;;;26.82;100.00
33280;BME280;20403;43.114;12.434;2023-07-13T11:12:49;99124.78;;;26.71;100.00
33280;BME280;20403;43.114;12.434;2023-07-13T11:15:28;99111.78;;;26.61;100.00
33280;BME280;20403;43.114;12.434;2023-07-13T11:17:55;99096.44;;;26.70;100.00
33280;BME280;20403;43.114;12.434;2023-07-13T11:20:37;99062.03;;;26.81;100.00
33280;BME280;20403;43.114;12.434;2023-07-13T11:23:15;99069.09;;;26.98;100.00
33280;BME280;20403;43.114;12.434;2023-07-13T11:25:42;99099.53;;;27.06;100.00
33280;BME280;20403;43.114;12.434;2023-07-13T11:30:39;99079.28;;;27.17;100.00
33280;BME280;20403;43.114;12.434;2023-07-13T11:35:59;99074.19;;;27.73;100.00
33280;BME280;20403;43.114;12.434;2023-07-13T11:38:33;99066.81;;;27.95;100.00
33280;BME280;20403;43.114;12.434;2023-07-13T11:41:04;99076.16;;;28.13;100.00
33280;BME280;20403;43.114;12.434;2023-07-13T11:43:30;99075.34;;;28.25;100.00
33280;BME280;20403;43.114;12.434;2023-07-13T11:45:55;99071.59;;;28.42;100.00
33280;BME280;20403;43.114;12.434;2023-07-13T11:48:28;99069.56;;;28.51;100.00
33280;BME280;20403;43.114;12.434;2023-07-13T11:51:03;99064.25;;;28.67;100.00
33280;BME280;20403;43.114;12.434;2023-07-13T11:53:38;99064.13;;;28.91;100.00
33280;BME280;20403;43.114;12.434;2023-07-13T11:56:05;99062.53;;;29.19;100.00
33280;BME280;20403;43.114;12.434;2023-07-13T11:58:31;99063.28;;;29.51;100.00
33280;BME280;20403;43.114;12.434;2023-07-13T12:00:59;99061.63;;;29.98;100.00
33280;BME280;20403;43.114;12.434;2023-07-13T12:03:27;99058.03;;;30.48;100.00
33280;BME280;20403;43.114;12.434;2023-07-13T12:06:00;99042.97;;;31.09;100.00
33280;BME280;20403;43.114;12.434;2023-07-13T12:08:27;99051.56;;;31.42;100.00
33280;BME280;20403;43.114;12.434;2023-07-13T12:11:12;99046.28;;;31.49;100.00
33280;BME280;20403;43.114;12.434;2023-07-13T12:13:40;99049.94;;;31.37;100.00
33280;BME280;20403;43.114;12.434;2023-07-13T12:16:15;99046.66;;;31.47;100.00
33280;BME280;20403;43.114;12.434;2023-07-13T12:18:42;99042.16;;;31.55;100.00
33280;BME280;20403;43.114;12.434;2023-07-13T12:21:13;99041.41;;;31.85;100.00
33280;BME280;20403;43.114;12.434;2023-07-13T12:23:39;99041.75;;;32.13;100.00
33280;BME280;20403;43.114;12.434;2023-07-13T12:26:06;99053.09;;;32.26;100.00
33280;BME280;20403;43.114;12.434;2023-07-13T12:28:33;99046.06;;;32.18;100.00
33280;BME280;20403;43.114;12.434;2023-07-13T12:31:06;99046.81;;;32.18;100.00
33280;BME280;20403;43.114;12.434;2023-07-13T12:33:32;99050.00;;;32.24;100.00
33280;BME280;20403;43.114;12.434;2023-07-13T12:36:03;99050.69;;;32.17;100.00
33280;BME280;20403;43.114;12.434;2023-07-13T12:38:31;99055.94;;;32.07;100.00
33280;BME280;20403;43.114;12.434;2023-07-13T12:40:57;99052.63;;;31.90;100.00
33280;BME280;20403;43.114;12.434;2023-07-13T12:43:23;99036.28;;;31.79;100.00
33280;BME280;20403;43.114;12.434;2023-07-13T12:46:18;99040.06;;;31.71;100.00
33280;BME280;20403;43.114;12.434;2023-07-13T12:48:48;99045.69;;;31.59;100.00
33280;BME280;20403;43.114;12.434;2023-07-13T12:51:14;99044.25;;;31.69;100.00
33280;BME280;20403;43.114;12.434;2023-07-13T12:53:42;99039.97;;;31.64;100.00
33280;BME280;20403;43.114;12.434;2023-07-13T12:56:17;99034.59;;;31.68;100.00
33280;BME280;20403;43.114;12.434;2023-07-13T12:58:45;99027.44;;;31.79;100.00
33280;BME280;20403;43.114;12.434;2023-07-13T13:01:14;99033.50;;;31.99;100.00
33280;BME280;20403;43.114;12.434;2023-07-13T13:03:40;99023.34;;;32.19;100.00
33280;BME280;20403;43.114;12.434;2023-07-13T13:08:41;99027.00;;;32.37;100.00
33280;BME280;20403;43.114;12.434;2023-07-13T13:11:09;99032.91;;;32.13;100.00
33280;BME280;20403;43.114;12.434;2023-07-13T13:13:35;99033.41;;;31.95;100.00
33280;BME280;20403;43.114;12.434;2023-07-13T13:16:14;99013.47;;;32.00;100.00
33280;BME280;20403;43.114;12.434;2023-07-13T13:18:42;99004.94;;;32.28;100.00